Time;durP1;ratioP1;P1;durP2;ratioP2;P2;SDS_P1;SDS_P2;PMS_P1;PMS_P2;Temp;Humidity;BMP_temperature;BMP_pressure;BME280_temperature;BME280_humidity;BME280_pressure;Samples;Min_cycle;Max_cycle;Signal;HPM_P1;HPM_P2
2020/12/28 00:01:57;;;;;;;3.60;2.40;;;4.30;99.90;;;;;;5064255;28;20247;-61
2020/12/28 00:04:23;;;;;;;3.40;2.50;;;4.20;99.90;;;;;;5066070;28;20206;-58
2020/12/28 00:06:49;;;;;;;2.87;2.33;;;4.30;99.90;;;;;;5067842;28;20230;-60
2020/12/28 00:09:16;;;;;;;3.10;2.57;;;4.30;99.90;;;;;;5065743;28;20207;-60
2020/12/28 00:11:43;;;;;;;2.20;2.00;;;4.20;99.90;;;;;;5068591;28;20661;-62
2020/12/28 00:14:09;;;;;;;2.13;1.93;;;4.20;99.90;;;;;;5068188;28;20206;-61
2020/12/28 00:16:36;;;;;;;2.57;2.17;;;4.30;99.90;;;;;;5067664;28;20202;-61
2020/12/28 00:19:02;;;;;;;2.23;2.03;;;4.30;99.90;;;;;;5064755;28;20230;-60
2020/12/28 00:21:28;;;;;;;2.97;2.00;;;4.30;99.90;;;;;;5067696;28;20679;-59
2020/12/28 00:23:55;;;;;;;3.20;2.90;;;4.30;99.90;;;;;;5067280;28;20230;-60
2020/12/28 00:26:21;;;;;;;2.00;1.80;;;4.20;99.90;;;;;;5065001;28;20267;-63
2020/12/28 00:28:48;;;;;;;3.03;2.47;;;4.30;99.90;;;;;;5068235;28;20673;-59
2020/12/28 00:31:14;;;;;;;2.50;2.30;;;4.20;99.90;;;;;;5066450;28;20202;-62
2020/12/28 00:33:42;;;;;;;3.27;2.37;;;4.20;99.90;;;;;;5061849;28;20709;-60
2020/12/28 00:36:13;;;;;;;2.67;1.90;;;4.30;99.90;;;;;;5067031;28;20564;-61
2020/12/28 00:38:40;;;;;;;2.43;1.90;;;4.30;99.90;;;;;;5060883;28;20228;-61
2020/12/28 00:41:06;;;;;;;1.63;1.53;;;4.40;99.90;;;;;;5066772;28;20744;-62
2020/12/28 00:43:33;;;;;;;2.00;1.53;;;4.40;99.90;;;;;;5072802;28;20221;-60
2020/12/28 00:46:00;;;;;;;1.37;1.27;;;4.40;99.90;;;;;;5065010;28;20228;-63
2020/12/28 00:48:26;;;;;;;2.50;1.70;;;4.40;99.90;;;;;;5065464;28;20579;-60
2020/12/28 00:50:53;;;;;;;2.10;1.90;;;4.40;99.90;;;;;;5068057;28;20210;-62
2020/12/28 00:53:19;;;;;;;1.70;1.60;;;4.30;99.90;;;;;;5067735;28;20234;-63
2020/12/28 00:55:45;;;;;;;1.50;1.37;;;4.40;99.90;;;;;;5073834;28;20236;-59
2020/12/28 00:58:11;;;;;;;2.10;1.67;;;4.30;99.90;;;;;;5072748;28;20567;-60
2020/12/28 01:00:38;;;;;;;2.23;1.60;;;4.30;99.90;;;;;;5074149;28;20202;-63
2020/12/28 01:03:05;;;;;;;1.93;1.83;;;4.40;99.90;;;;;;5072489;28;20649;-60
2020/12/28 01:05:31;;;;;;;2.00;1.80;;;4.40;99.90;;;;;;5072992;28;20746;-62
2020/12/28 01:07:57;;;;;;;2.53;1.33;;;4.40;99.90;;;;;;5070988;28;20213;-62
2020/12/28 01:10:26;;;;;;;1.60;1.10;;;4.30;99.90;;;;;;5070811;28;20202;-63
2020/12/28 01:12:52;;;;;;;1.50;1.30;;;4.40;99.90;;;;;;5072648;28;20638;-59
2020/12/28 01:15:19;;;;;;;1.77;1.57;;;4.30;99.90;;;;;;5073391;28;20210;-62
2020/12/28 01:17:46;;;;;;;0.90;0.90;;;4.30;99.90;;;;;;5069749;28;20237;-62
2020/12/28 01:20:13;;;;;;;1.50;1.40;;;4.30;99.90;;;;;;5066659;28;20212;-62
2020/12/28 01:22:39;;;;;;;2.67;2.20;;;4.40;99.90;;;;;;5072493;28;20226;-63
2020/12/28 01:25:06;;;;;;;5.90;5.40;;;4.40;99.90;;;;;;5072479;28;20206;-61
2020/12/28 01:27:32;;;;;;;2.50;2.30;;;4.30;99.90;;;;;;5072066;28;20226;-59
2020/12/28 01:29:58;;;;;;;2.07;1.93;;;4.40;99.90;;;;;;5073271;28;20989;-62
2020/12/28 01:32:24;;;;;;;1.80;1.70;;;4.30;99.90;;;;;;5073575;28;20222;-62
2020/12/28 01:34:51;;;;;;;0.80;0.80;;;4.40;99.90;;;;;;5063240;28;20343;-61
2020/12/28 01:37:18;;;;;;;1.03;0.90;;;4.50;99.90;;;;;;5073980;28;20201;-60
2020/12/28 01:39:44;;;;;;;1.10;1.00;;;4.50;99.90;;;;;;5066213;28;20665;-60
2020/12/28 01:42:11;;;;;;;1.10;1.00;;;4.40;99.90;;;;;;5072084;28;20222;-60
2020/12/28 01:44:37;;;;;;;0.87;0.73;;;4.40;99.90;;;;;;5069618;28;20198;-61
2020/12/28 01:47:04;;;;;;;0.70;0.70;;;4.40;99.90;;;;;;5072462;28;20222;-62
2020/12/28 01:49:31;;;;;;;1.73;1.63;;;4.50;99.90;;;;;;5065711;28;20202;-62
2020/12/28 01:52:00;;;;;;;1.60;1.50;;;4.50;99.90;;;;;;5067715;28;20198;-61
2020/12/28 01:54:28;;;;;;;2.20;2.10;;;4.50;99.90;;;;;;5069663;28;20251;-62
2020/12/28 01:56:56;;;;;;;1.17;1.07;;;4.50;99.90;;;;;;5080537;22;20256;-55
2020/12/28 01:59:24;;;;;;;0.60;0.60;;;4.50;99.90;;;;;;5052738;28;20203;-55
2020/12/28 02:01:51;;;;;;;0.87;0.83;;;4.60;99.90;;;;;;5045769;28;20211;-53
2020/12/28 02:04:18;;;;;;;0.60;0.60;;;4.60;99.90;;;;;;5052580;28;20619;-55
2020/12/28 02:06:45;;;;;;;0.77;0.77;;;4.60;99.90;;;;;;5053054;28;20616;-55
2020/12/28 02:09:11;;;;;;;1.10;1.10;;;4.60;99.90;;;;;;5053102;28;20654;-55
2020/12/28 02:11:38;;;;;;;1.97;1.87;;;4.60;99.90;;;;;;5052831;28;20207;-55
2020/12/28 02:14:04;;;;;;;0.80;0.70;;;4.50;99.90;;;;;;5051868;28;20607;-53
2020/12/28 02:16:31;;;;;;;2.50;2.30;;;4.60;99.90;;;;;;5052593;28;20310;-57
2020/12/28 02:18:58;;;;;;;1.77;1.67;;;4.50;99.90;;;;;;5052680;28;20810;-54
2020/12/28 02:21:24;;;;;;;2.60;2.40;;;4.60;99.90;;;;;;5051982;28;20207;-54
2020/12/28 02:23:51;;;;;;;0.80;0.80;;;4.60;99.90;;;;;;5049528;28;20199;-56
2020/12/28 02:26:18;;;;;;;0.40;0.40;;;4.50;99.90;;;;;;5041581;28;20231;-57
2020/12/28 02:28:44;;;;;;;2.43;0.70;;;4.50;99.90;;;;;;5050655;28;20780;-57
2020/12/28 02:31:10;;;;;;;0.50;0.50;;;4.60;99.90;;;;;;5051403;28;20207;-55
2020/12/28 02:33:40;;;;;;;0.47;0.47;;;4.60;99.90;;;;;;5050362;28;20293;-54
2020/12/28 02:36:08;;;;;;;0.70;0.60;;;4.50;99.90;;;;;;5052371;28;20211;-54
2020/12/28 02:38:34;;;;;;;0.50;0.50;;;4.50;99.90;;;;;;5051764;28;20253;-57
2020/12/28 02:41:02;;;;;;;0.63;0.63;;;4.50;99.90;;;;;;5052375;28;20236;-54
2020/12/28 02:43:29;;;;;;;0.60;0.60;;;4.50;99.90;;;;;;5049167;28;20707;-55
2020/12/28 02:45:56;;;;;;;0.57;0.57;;;4.50;99.90;;;;;;5051720;28;20283;-54
2020/12/28 02:48:22;;;;;;;0.43;0.43;;;4.50;99.90;;;;;;5043099;28;20206;-54
2020/12/28 02:50:48;;;;;;;0.60;0.60;;;4.60;99.90;;;;;;5049160;28;20252;-56
2020/12/28 02:53:15;;;;;;;0.73;0.60;;;4.60;99.90;;;;;;5047201;28;20218;-54
2020/12/28 02:55:41;;;;;;;0.50;0.50;;;4.60;99.90;;;;;;5046458;28;20558;-54
2020/12/28 02:58:08;;;;;;;0.40;0.40;;;4.60;99.90;;;;;;5049407;28;20235;-55
2020/12/28 03:00:35;;;;;;;0.40;0.40;;;4.60;99.90;;;;;;5047580;28;20207;-54
2020/12/28 03:03:01;;;;;;;2.00;0.70;;;4.60;99.90;;;;;;5040294;28;20211;-56
2020/12/28 03:05:27;;;;;;;0.53;0.50;;;4.60;99.90;;;;;;5044529;28;20904;-57
2020/12/28 03:07:54;;;;;;;1.20;1.10;;;4.60;99.90;;;;;;5040704;28;20229;-56
2020/12/28 03:10:20;;;;;;;0.70;0.70;;;4.60;99.90;;;;;;5050891;28;20207;-54
2020/12/28 03:12:47;;;;;;;0.60;0.60;;;4.60;99.90;;;;;;5051362;28;20201;-54
2020/12/28 03:15:14;;;;;;;0.53;0.53;;;4.60;99.90;;;;;;5051718;28;20210;-54
2020/12/28 03:17:40;;;;;;;0.60;0.60;;;4.50;99.90;;;;;;5051412;28;20219;-57
2020/12/28 03:20:07;;;;;;;0.53;0.53;;;4.60;99.90;;;;;;5051707;28;20661;-54
2020/12/28 03:22:33;;;;;;;2.50;2.30;;;4.60;99.90;;;;;;5051703;28;20206;-54
2020/12/28 03:24:59;;;;;;;2.70;2.50;;;4.60;99.90;;;;;;5050988;28;20206;-55
2020/12/28 03:27:25;;;;;;;1.30;1.20;;;4.60;99.90;;;;;;5050765;28;20237;-56
2020/12/28 03:29:52;;;;;;;0.67;0.67;;;4.60;99.90;;;;;;5046371;28;20787;-58
2020/12/28 03:32:19;;;;;;;0.97;0.53;;;4.60;99.90;;;;;;5050863;28;20263;-57
2020/12/28 03:34:45;;;;;;;0.70;0.70;;;4.60;99.90;;;;;;5049733;28;20207;-56
2020/12/28 03:37:11;;;;;;;0.47;0.47;;;4.50;99.90;;;;;;5050721;28;20719;-55
2020/12/28 03:39:38;;;;;;;0.70;0.53;;;4.60;99.90;;;;;;5050461;28;20256;-56
2020/12/28 03:42:04;;;;;;;0.67;0.67;;;4.60;99.90;;;;;;5050656;28;20211;-57
2020/12/28 03:44:30;;;;;;;0.70;0.70;;;4.50;99.90;;;;;;5051059;28;20662;-57
2020/12/28 03:46:56;;;;;;;0.80;0.80;;;4.50;99.90;;;;;;5050988;28;20222;-58
2020/12/28 03:49:24;;;;;;;0.50;0.50;;;4.50;99.90;;;;;;5051161;28;20205;-56
2020/12/28 03:51:50;;;;;;;0.70;0.70;;;4.60;99.90;;;;;;5050875;28;20680;-55
2020/12/28 03:54:16;;;;;;;0.70;0.60;;;4.60;99.90;;;;;;5050350;28;20213;-57
2020/12/28 03:56:42;;;;;;;0.90;0.90;;;4.60;99.90;;;;;;5051198;28;20238;-55
2020/12/28 03:59:09;;;;;;;0.50;0.40;;;4.60;99.90;;;;;;5051042;28;20207;-57
2020/12/28 04:01:35;;;;;;;0.73;0.73;;;4.60;99.90;;;;;;5049378;28;20551;-55
2020/12/28 04:04:01;;;;;;;0.83;0.77;;;4.60;99.90;;;;;;5044888;28;20204;-54
2020/12/28 04:06:28;;;;;;;0.50;0.50;;;4.60;99.90;;;;;;5046109;28;20227;-54
2020/12/28 04:08:55;;;;;;;0.57;0.50;;;4.60;99.90;;;;;;5048098;28;20213;-58
2020/12/28 04:11:21;;;;;;;0.70;0.70;;;4.60;99.90;;;;;;5050423;28;20203;-57
2020/12/28 04:13:47;;;;;;;0.70;0.70;;;4.60;99.90;;;;;;5050082;28;20677;-56
2020/12/28 04:16:15;;;;;;;0.67;0.67;;;4.60;99.90;;;;;;5050458;28;20280;-58
2020/12/28 04:18:41;;;;;;;0.70;0.70;;;4.70;99.90;;;;;;5050277;28;20194;-58
2020/12/28 04:21:07;;;;;;;0.67;0.67;;;4.70;99.90;;;;;;5050989;28;20253;-57
2020/12/28 04:23:35;;;;;;;0.50;0.50;;;4.60;99.90;;;;;;5050320;28;20203;-54
2020/12/28 04:26:02;;;;;;;0.60;0.60;;;4.60;99.90;;;;;;5049441;28;20223;-54
2020/12/28 04:28:28;;;;;;;0.60;0.60;;;4.60;99.90;;;;;;5046907;28;20256;-54
2020/12/28 04:30:55;;;;;;;0.80;0.73;;;4.50;99.90;;;;;;5047088;28;20199;-54
2020/12/28 04:33:21;;;;;;;0.77;0.77;;;4.50;99.90;;;;;;5046050;28;20203;-53
2020/12/28 04:35:47;;;;;;;0.63;0.63;;;4.60;99.90;;;;;;5044870;28;20734;-57
2020/12/28 04:38:14;;;;;;;0.67;0.67;;;4.60;99.90;;;;;;5047854;28;20231;-57
2020/12/28 04:40:41;;;;;;;0.80;0.80;;;4.60;99.90;;;;;;5049389;28;20229;-54
2020/12/28 04:43:11;;;;;;;0.77;0.77;;;4.60;99.90;;;;;;5048058;28;20206;-54
2020/12/28 04:45:38;;;;;;;0.93;0.93;;;4.60;99.90;;;;;;5048321;28;20219;-56
2020/12/28 04:48:07;;;;;;;0.80;0.80;;;4.60;99.90;;;;;;5045258;28;20230;-56
2020/12/28 04:50:34;;;;;;;0.70;0.70;;;4.50;99.90;;;;;;5048795;28;20206;-53
2020/12/28 04:53:02;;;;;;;0.90;0.90;;;4.50;99.90;;;;;;5050371;28;20214;-57
2020/12/28 04:55:28;;;;;;;0.87;0.83;;;4.50;99.90;;;;;;5050359;28;20205;-59
2020/12/28 04:57:55;;;;;;;0.80;0.80;;;4.50;99.90;;;;;;5047234;28;20235;-54
2020/12/28 05:00:22;;;;;;;1.27;1.20;;;4.50;99.90;;;;;;5041532;28;20207;-56
2020/12/28 05:02:48;;;;;;;1.00;0.87;;;4.50;99.90;;;;;;5047457;28;20575;-55
2020/12/28 05:05:14;;;;;;;0.73;0.73;;;4.50;99.90;;;;;;5047845;28;20301;-53
2020/12/28 05:07:43;;;;;;;1.37;0.67;;;4.60;99.90;;;;;;5049812;28;20226;-52
2020/12/28 05:10:20;;;;;;;1.00;0.90;;;4.60;99.90;;;;;;5047715;28;20203;-53
2020/12/28 05:12:47;;;;;;;1.17;0.73;;;4.50;99.90;;;;;;5044430;28;20201;-56
2020/12/28 05:15:14;;;;;;;0.97;0.87;;;4.40;99.90;;;;;;5048927;28;20607;-55
2020/12/28 05:17:41;;;;;;;1.20;1.10;;;4.30;99.90;;;;;;5046851;28;20591;-56
2020/12/28 05:20:07;;;;;;;1.10;1.00;;;4.30;99.90;;;;;;5046809;28;20618;-55
2020/12/28 05:22:34;;;;;;;2.17;0.77;;;4.30;99.90;;;;;;5046707;28;20195;-55
2020/12/28 05:25:00;;;;;;;0.90;0.90;;;4.40;99.90;;;;;;5049258;28;20210;-57
2020/12/28 05:27:26;;;;;;;1.23;0.80;;;4.40;99.90;;;;;;5051493;28;20231;-55
2020/12/28 05:29:53;;;;;;;1.03;1.03;;;4.40;99.90;;;;;;5053371;28;20700;-54
2020/12/28 05:32:20;;;;;;;2.03;1.00;;;4.40;99.90;;;;;;5053349;28;20207;-58
2020/12/28 05:34:47;;;;;;;0.93;0.93;;;4.40;99.90;;;;;;5047692;28;20207;-60
2020/12/28 05:37:14;;;;;;;1.33;1.03;;;4.60;99.90;;;;;;5041731;28;20702;-56
2020/12/28 05:39:42;;;;;;;0.70;0.70;;;4.70;99.90;;;;;;5050977;28;20658;-59
2020/12/28 05:42:10;;;;;;;1.37;1.27;;;4.80;99.90;;;;;;5046188;28;20199;-58
2020/12/28 05:44:37;;;;;;;1.07;0.97;;;4.80;99.90;;;;;;5053228;28;20199;-56
2020/12/28 05:47:09;;;;;;;1.03;0.93;;;4.80;99.90;;;;;;5053408;28;20223;-56
2020/12/28 05:49:37;;;;;;;0.77;0.77;;;4.90;99.90;;;;;;5053428;28;20248;-57
2020/12/28 05:52:05;;;;;;;1.33;1.00;;;4.90;99.90;;;;;;5053355;28;20211;-56
2020/12/28 05:54:32;;;;;;;0.80;0.80;;;4.80;99.90;;;;;;5052722;28;20565;-57
2020/12/28 05:56:58;;;;;;;0.70;0.70;;;4.80;99.90;;;;;;5052934;28;20229;-54
2020/12/28 05:59:25;;;;;;;0.90;0.90;;;4.80;99.90;;;;;;5053271;28;20203;-60
2020/12/28 06:01:52;;;;;;;2.13;0.97;;;4.90;99.90;;;;;;5053324;28;20582;-58
2020/12/28 06:04:20;;;;;;;0.80;0.80;;;4.80;99.90;;;;;;5052867;28;20206;-58
2020/12/28 06:06:48;;;;;;;1.10;0.67;;;4.70;99.90;;;;;;5050174;28;20283;-57
2020/12/28 06:09:18;;;;;;;12.47;1.10;;;4.70;99.90;;;;;;5052305;28;20209;-58
2020/12/28 06:11:45;;;;;;;1.63;0.90;;;4.70;99.90;;;;;;5051161;28;20256;-59
2020/12/28 06:14:15;;;;;;;2.10;1.60;;;4.80;99.90;;;;;;5052441;28;20724;-57
2020/12/28 06:16:42;;;;;;;1.10;1.00;;;4.60;99.90;;;;;;5052886;28;20219;-57
2020/12/28 06:19:19;;;;;;;1.00;0.90;;;4.60;99.90;;;;;;5052771;28;20206;-54
2020/12/28 06:21:47;;;;;;;0.90;0.90;;;4.40;99.90;;;;;;5052962;28;20230;-59
2020/12/28 06:24:13;;;;;;;1.10;1.00;;;4.40;99.90;;;;;;5051818;28;20797;-55
2020/12/28 06:26:39;;;;;;;0.90;0.90;;;4.40;99.90;;;;;;5052998;28;20231;-59
2020/12/28 06:29:06;;;;;;;0.90;0.90;;;4.30;99.90;;;;;;5052401;28;20203;-59
2020/12/28 06:31:33;;;;;;;0.80;0.77;;;4.20;99.90;;;;;;5053015;28;20199;-55
2020/12/28 06:34:00;;;;;;;1.30;1.20;;;4.20;99.90;;;;;;5051053;28;20297;-59
2020/12/28 06:36:26;;;;;;;1.17;1.07;;;4.30;99.90;;;;;;5049503;28;20592;-55
2020/12/28 06:38:58;;;;;;;1.10;1.00;;;4.30;99.90;;;;;;5047727;28;20665;-55
2020/12/28 06:41:25;;;;;;;1.37;1.23;;;4.40;99.90;;;;;;5051285;28;20286;-58
2020/12/28 06:43:52;;;;;;;1.20;1.10;;;4.40;99.90;;;;;;5052094;28;20198;-56
2020/12/28 06:46:22;;;;;;;2.20;1.30;;;4.40;99.90;;;;;;5051964;28;20235;-54
2020/12/28 06:48:49;;;;;;;1.07;0.97;;;4.30;99.90;;;;;;5052142;28;20684;-57
2020/12/28 06:51:15;;;;;;;1.10;1.00;;;4.40;99.90;;;;;;5052116;28;20268;-54
2020/12/28 06:53:42;;;;;;;1.10;1.00;;;4.50;99.90;;;;;;5051790;28;20207;-58
2020/12/28 06:56:10;;;;;;;1.30;1.20;;;4.50;99.90;;;;;;5052423;28;20203;-58
2020/12/28 06:58:37;;;;;;;0.97;0.97;;;4.50;99.90;;;;;;5051670;28;20209;-56
2020/12/28 07:01:05;;;;;;;1.47;1.37;;;4.40;99.90;;;;;;5050393;28;20279;-55
2020/12/28 07:03:31;;;;;;;1.70;1.20;;;4.40;99.90;;;;;;5047699;28;20207;-55
2020/12/28 07:06:01;;;;;;;1.73;1.27;;;4.40;99.90;;;;;;5050326;28;20207;-54
2020/12/28 07:08:28;;;;;;;2.40;2.20;;;4.30;99.90;;;;;;5050625;28;20207;-54
2020/12/28 07:11:02;;;;;;;2.90;2.50;;;4.30;99.90;;;;;;5050807;28;20198;-56
2020/12/28 07:13:29;;;;;;;2.83;2.57;;;4.30;99.90;;;;;;5050206;28;20207;-58
2020/12/28 07:16:03;;;;;;;4.13;3.50;;;4.40;99.90;;;;;;5051114;28;20199;-53
2020/12/28 07:18:29;;;;;;;2.63;2.43;;;4.40;99.90;;;;;;5049570;28;20232;-53
2020/12/28 07:20:56;;;;;;;4.07;3.03;;;4.40;99.90;;;;;;5048644;28;20208;-53
2020/12/28 07:23:24;;;;;;;3.87;3.37;;;4.40;99.90;;;;;;5049970;28;20229;-58
2020/12/28 07:26:04;;;;;;;2.63;2.20;;;4.40;99.90;;;;;;5050310;28;20298;-54
2020/12/28 07:28:31;;;;;;;2.70;1.93;;;4.50;99.90;;;;;;5045879;28;20199;-59
2020/12/28 07:30:58;;;;;;;3.33;1.33;;;4.40;99.90;;;;;;5050545;28;20214;-57
2020/12/28 07:33:25;;;;;;;2.10;1.90;;;4.30;99.90;;;;;;5045600;28;20211;-57
2020/12/28 07:36:09;;;;;;;2.60;2.37;;;4.30;99.90;;;;;;5051705;28;20206;-58
2020/12/28 07:38:36;;;;;;;4.33;3.80;;;4.20;99.90;;;;;;5046933;28;20283;-58
2020/12/28 07:41:03;;;;;;;3.60;3.20;;;4.10;99.90;;;;;;5051243;28;20603;-53
2020/12/28 07:43:29;;;;;;;3.77;2.53;;;4.20;99.90;;;;;;5051120;28;20272;-56
2020/12/28 07:46:06;;;;;;;2.60;2.40;;;4.20;99.90;;;;;;5050975;28;20206;-58
2020/12/28 07:48:37;;;;;;;2.80;2.60;;;4.20;99.90;;;;;;5050704;28;20195;-59
2020/12/28 07:51:07;;;;;;;2.20;2.00;;;4.10;99.90;;;;;;5050292;28;20674;-59
2020/12/28 07:53:39;;;;;;;2.57;2.37;;;4.10;99.90;;;;;;5050000;28;20202;-53
2020/12/28 07:56:09;;;;;;;4.50;3.53;;;4.10;99.90;;;;;;5045298;28;20203;-57
2020/12/28 07:58:44;;;;;;;5.90;5.33;;;4.10;99.90;;;;;;5075886;22;20226;-61
2020/12/28 08:01:19;;;;;;;4.10;3.70;;;4.10;99.90;;;;;;5062155;28;20202;-61
2020/12/28 08:03:47;;;;;;;4.10;3.70;;;4.10;99.90;;;;;;5066526;28;20202;-61
2020/12/28 08:06:15;;;;;;;3.27;2.97;;;4.10;99.90;;;;;;5065461;28;20206;-61
2020/12/28 08:08:41;;;;;;;2.83;1.87;;;4.10;99.90;;;;;;5072968;28;20283;-63
2020/12/28 08:11:08;;;;;;;3.33;2.13;;;4.00;99.90;;;;;;5087747;28;20701;-61
2020/12/28 08:13:35;;;;;;;2.37;1.80;;;4.10;99.90;;;;;;5084763;28;20285;-63
2020/12/28 08:16:09;;;;;;;1.70;1.60;;;4.10;99.90;;;;;;5083957;28;20209;-61
2020/12/28 08:18:47;;;;;;;2.03;1.50;;;4.10;99.90;;;;;;5082764;28;20218;-61
2020/12/28 08:21:13;;;;;;;1.93;1.77;;;4.10;99.90;;;;;;5082414;28;20642;-59
2020/12/28 08:23:40;;;;;;;2.13;1.80;;;3.90;99.90;;;;;;5087551;28;20694;-61
2020/12/28 08:26:17;;;;;;;2.13;1.90;;;3.90;99.90;;;;;;5084575;28;20561;-61
2020/12/28 08:28:49;;;;;;;2.83;2.43;;;4.00;99.90;;;;;;5076207;28;20221;-62
2020/12/28 08:31:16;;;;;;;3.27;2.97;;;4.20;99.90;;;;;;5084608;28;20201;-62
2020/12/28 08:33:42;;;;;;;2.83;2.53;;;4.40;99.90;;;;;;5082691;28;20206;-60
2020/12/28 08:36:09;;;;;;;4.53;3.50;;;4.40;99.90;;;;;;5084983;28;20208;-59
2020/12/28 08:38:35;;;;;;;2.90;2.50;;;4.40;99.90;;;;;;5083607;28;20221;-61
2020/12/28 08:41:02;;;;;;;2.57;2.37;;;4.60;99.90;;;;;;5074056;28;20201;-61
2020/12/28 08:43:28;;;;;;;1.70;1.60;;;4.80;99.90;;;;;;5075321;28;20199;-62
2020/12/28 08:46:03;;;;;;;1.70;1.60;;;4.80;99.90;;;;;;5077747;28;20197;-62
2020/12/28 08:48:29;;;;;;;1.77;1.40;;;4.90;99.90;;;;;;5082562;28;20217;-59
2020/12/28 08:50:55;;;;;;;1.30;1.20;;;4.80;99.90;;;;;;5080646;28;20574;-59
2020/12/28 08:53:23;;;;;;;1.70;1.57;;;4.80;99.90;;;;;;5083424;28;20206;-61
2020/12/28 08:56:00;;;;;;;1.30;1.20;;;4.80;99.90;;;;;;5086807;28;20212;-61
2020/12/28 08:58:26;;;;;;;3.03;2.77;;;4.80;99.90;;;;;;5084973;28;20232;-62
2020/12/28 09:00:52;;;;;;;5.43;4.43;;;5.00;99.90;;;;;;5088926;28;20235;-62
2020/12/28 09:03:19;;;;;;;2.83;2.43;;;5.00;99.90;;;;;;5085968;28;20251;-60
2020/12/28 09:05:45;;;;;;;3.67;3.37;;;5.00;99.90;;;;;;5078414;28;20251;-60
2020/12/28 09:08:11;;;;;;;2.03;1.73;;;5.30;99.90;;;;;;5080810;28;20237;-62
2020/12/28 09:10:39;;;;;;;2.20;1.80;;;5.30;99.90;;;;;;5084439;28;20290;-59
2020/12/28 09:13:05;;;;;;;2.10;2.00;;;5.20;99.90;;;;;;5077337;28;20206;-62
2020/12/28 09:15:31;;;;;;;1.97;1.77;;;5.30;99.90;;;;;;5085324;28;20676;-61
2020/12/28 09:17:57;;;;;;;2.93;1.20;;;5.10;99.90;;;;;;5091599;28;20241;-60
2020/12/28 09:20:24;;;;;;;1.30;1.20;;;5.00;99.90;;;;;;5091305;28;20212;-60
2020/12/28 09:22:50;;;;;;;1.23;1.13;;;5.10;99.90;;;;;;5087249;28;20256;-60
2020/12/28 09:25:16;;;;;;;1.43;1.30;;;5.00;99.90;;;;;;5077509;28;20335;-62
2020/12/28 09:27:43;;;;;;;2.43;1.60;;;5.00;99.90;;;;;;5079331;28;20646;-61
2020/12/28 09:30:10;;;;;;;1.60;1.50;;;4.90;99.90;;;;;;5088549;28;20206;-61
2020/12/28 09:32:36;;;;;;;1.30;1.20;;;4.90;99.90;;;;;;5086375;28;20198;-61
2020/12/28 09:35:03;;;;;;;1.30;1.20;;;4.90;99.90;;;;;;5083348;28;20206;-60
2020/12/28 09:37:29;;;;;;;1.40;1.03;;;4.90;99.90;;;;;;5080789;28;20217;-62
2020/12/28 09:39:55;;;;;;;1.40;1.30;;;4.90;99.90;;;;;;5088921;28;20210;-60
2020/12/28 09:42:22;;;;;;;2.17;2.00;;;5.00;99.90;;;;;;5083703;28;20209;-62
2020/12/28 09:44:49;;;;;;;1.17;1.00;;;4.90;99.90;;;;;;5091035;28;20202;-59
2020/12/28 09:47:15;;;;;;;1.10;1.10;;;4.90;99.90;;;;;;5082823;28;20237;-61
2020/12/28 09:49:41;;;;;;;3.37;3.07;;;5.10;99.90;;;;;;5082781;28;20236;-61
2020/12/28 09:52:08;;;;;;;2.63;2.43;;;5.00;99.90;;;;;;5081400;28;20212;-57
2020/12/28 09:54:34;;;;;;;1.67;1.20;;;5.00;99.90;;;;;;5080907;28;20201;-61
2020/12/28 09:57:05;;;;;;;1.30;1.20;;;5.00;99.90;;;;;;5087513;28;20264;-60
2020/12/28 09:59:32;;;;;;;2.67;1.03;;;5.00;99.90;;;;;;5079668;28;20667;-59
2020/12/28 10:02:00;;;;;;;0.90;0.83;;;5.10;99.90;;;;;;5086996;28;20221;-61
2020/12/28 10:04:26;;;;;;;1.53;1.20;;;5.10;99.90;;;;;;5073601;28;20207;-59
2020/12/28 10:06:52;;;;;;;1.60;1.50;;;5.00;99.90;;;;;;5083236;28;20232;-60
2020/12/28 10:09:18;;;;;;;2.47;1.80;;;5.10;99.90;;;;;;5083735;28;20202;-62
2020/12/28 10:11:45;;;;;;;4.50;1.80;;;5.20;99.90;;;;;;5082318;28;20202;-59
2020/12/28 10:14:11;;;;;;;2.00;1.40;;;5.40;99.90;;;;;;5082099;28;20210;-60
2020/12/28 10:16:37;;;;;;;0.90;0.90;;;5.60;99.90;;;;;;5072393;28;20195;-60
2020/12/28 10:19:04;;;;;;;1.07;1.00;;;5.60;99.90;;;;;;5079553;28;20208;-61
2020/12/28 10:21:31;;;;;;;0.93;0.73;;;5.50;99.90;;;;;;5080369;28;20691;-60
2020/12/28 10:23:57;;;;;;;1.60;1.50;;;5.50;99.90;;;;;;5076755;28;20664;-60
2020/12/28 10:26:24;;;;;;;1.10;1.00;;;5.50;99.90;;;;;;5080181;28;20204;-55
2020/12/28 10:28:52;;;;;;;0.80;0.80;;;5.50;99.90;;;;;;5076076;28;20229;-57
2020/12/28 10:31:19;;;;;;;1.23;1.13;;;5.50;99.90;;;;;;5091124;28;20206;-60
2020/12/28 10:33:46;;;;;;;1.63;1.53;;;5.50;99.90;;;;;;5079619;28;20543;-61
2020/12/28 10:36:16;;;;;;;2.30;1.80;;;5.40;99.90;;;;;;5075612;28;20198;-60
2020/12/28 10:38:42;;;;;;;1.67;1.37;;;5.30;99.90;;;;;;5080505;28;20738;-58
2020/12/28 10:41:09;;;;;;;1.30;1.20;;;5.40;99.90;;;;;;5081639;28;20673;-61
2020/12/28 10:43:35;;;;;;;1.33;1.23;;;5.20;99.90;;;;;;5081372;28;20205;-61
2020/12/28 10:46:02;;;;;;;1.30;1.10;;;5.40;99.90;;;;;;5084710;28;20672;-60
2020/12/28 10:48:29;;;;;;;1.60;1.50;;;5.40;99.90;;;;;;5082365;28;20222;-62
2020/12/28 10:50:55;;;;;;;1.30;1.20;;;5.50;99.90;;;;;;5085965;28;20202;-61
2020/12/28 10:53:22;;;;;;;1.20;1.10;;;5.40;99.90;;;;;;5083331;28;20201;-61
2020/12/28 10:55:48;;;;;;;1.10;0.97;;;5.40;99.90;;;;;;5083182;28;20293;-62
2020/12/28 10:58:15;;;;;;;2.33;2.17;;;5.50;99.90;;;;;;5073615;28;20245;-60
2020/12/28 11:00:41;;;;;;;1.57;1.30;;;5.70;99.90;;;;;;5073247;28;20210;-61
2020/12/28 11:03:07;;;;;;;1.40;1.30;;;5.60;99.90;;;;;;5072928;28;20262;-59
2020/12/28 11:05:34;;;;;;;1.97;1.30;;;5.60;99.90;;;;;;5071785;28;20205;-60
2020/12/28 11:08:00;;;;;;;1.37;1.27;;;5.60;99.90;;;;;;5072008;28;20240;-61
2020/12/28 11:10:27;;;;;;;2.10;1.90;;;5.70;99.90;;;;;;5074677;28;20198;-59
2020/12/28 11:12:53;;;;;;;2.70;2.50;;;5.70;99.90;;;;;;5071762;28;20198;-62
2020/12/28 11:15:20;;;;;;;3.00;2.63;;;5.90;99.90;;;;;;5071528;28;20198;-61
2020/12/28 11:17:46;;;;;;;3.60;2.53;;;6.00;99.90;;;;;;5071734;28;20222;-62
2020/12/28 11:20:12;;;;;;;3.20;2.90;;;6.20;99.90;;;;;;5071749;28;20205;-62
2020/12/28 11:22:38;;;;;;;1.87;1.77;;;6.20;99.90;;;;;;5071675;28;20252;-61
2020/12/28 11:25:05;;;;;;;2.27;2.00;;;6.20;99.90;;;;;;5073388;28;20673;-62
2020/12/28 11:27:32;;;;;;;1.40;0.97;;;6.30;99.90;;;;;;5074084;28;20236;-62
2020/12/28 11:29:59;;;;;;;0.80;0.80;;;6.30;99.90;;;;;;5075341;28;20590;-63
2020/12/28 11:32:25;;;;;;;2.67;2.33;;;6.30;99.90;;;;;;5074054;28;20647;-61
2020/12/28 11:34:51;;;;;;;1.27;1.17;;;6.40;99.90;;;;;;5074502;28;20212;-62
2020/12/28 11:37:18;;;;;;;1.53;1.43;;;6.40;99.90;;;;;;5082215;28;20225;-61
2020/12/28 11:39:44;;;;;;;1.07;1.07;;;6.40;99.90;;;;;;5073722;28;20206;-62
2020/12/28 11:42:10;;;;;;;1.30;1.20;;;6.50;99.90;;;;;;5078923;28;20205;-60
2020/12/28 11:44:37;;;;;;;1.03;1.03;;;6.50;99.90;;;;;;5085626;28;20199;-61
2020/12/28 11:47:04;;;;;;;2.23;1.97;;;6.60;99.90;;;;;;5072192;28;20226;-62
2020/12/28 11:49:30;;;;;;;1.23;1.13;;;6.50;99.90;;;;;;5070512;28;20198;-62
2020/12/28 11:51:57;;;;;;;2.20;1.23;;;6.40;99.90;;;;;;5076150;28;20202;-62
2020/12/28 11:54:23;;;;;;;2.17;1.53;;;6.40;99.90;;;;;;5070968;28;20202;-62
2020/12/28 11:56:50;;;;;;;1.47;1.37;;;6.30;99.90;;;;;;5081924;28;20275;-63
2020/12/28 11:59:16;;;;;;;0.90;0.90;;;6.30;99.90;;;;;;5071428;28;20239;-63
2020/12/28 12:01:47;;;;;;;2.10;1.40;;;6.30;99.90;;;;;;5070689;28;20248;-62
2020/12/28 12:04:14;;;;;;;1.00;1.00;;;6.30;99.90;;;;;;5071200;28;20198;-62
2020/12/28 12:06:40;;;;;;;1.23;1.13;;;6.30;99.90;;;;;;5082598;28;20225;-61
2020/12/28 12:09:13;;;;;;;0.90;0.90;;;6.40;99.90;;;;;;5074874;28;20197;-62
2020/12/28 12:11:43;;;;;;;1.20;1.10;;;6.40;99.90;;;;;;5077697;28;20202;-62
2020/12/28 12:14:10;;;;;;;1.47;1.23;;;6.40;99.90;;;;;;5082133;28;20205;-60
2020/12/28 12:16:37;;;;;;;1.53;1.10;;;6.40;99.90;;;;;;5078456;28;20290;-60
2020/12/28 12:19:04;;;;;;;1.00;1.00;;;6.50;99.90;;;;;;5077895;28;20206;-60
2020/12/28 12:21:31;;;;;;;1.10;1.00;;;6.50;99.90;;;;;;5078474;28;20351;-59
2020/12/28 12:23:57;;;;;;;1.77;1.40;;;6.50;99.90;;;;;;5078793;28;20695;-61
2020/12/28 12:26:25;;;;;;;6.93;4.03;;;6.50;99.90;;;;;;5079501;28;20204;-60
2020/12/28 12:28:54;;;;;;;1.40;1.30;;;6.50;99.90;;;;;;5081761;28;20230;-62
2020/12/28 12:31:21;;;;;;;1.40;1.30;;;6.50;99.90;;;;;;5076345;28;20201;-62
2020/12/28 12:33:47;;;;;;;1.67;1.10;;;6.50;99.90;;;;;;5078203;28;20210;-62
2020/12/28 12:36:16;;;;;;;1.07;1.03;;;6.50;99.90;;;;;;5080268;28;20530;-62
2020/12/28 12:38:42;;;;;;;1.57;1.10;;;6.50;99.90;;;;;;5079409;28;20262;-61
2020/12/28 12:41:13;;;;;;;2.30;1.57;;;6.60;99.90;;;;;;5085792;28;20206;-60
2020/12/28 12:43:39;;;;;;;1.73;1.60;;;6.60;99.90;;;;;;5088115;28;20212;-62
2020/12/28 12:46:07;;;;;;;1.77;1.57;;;6.70;99.90;;;;;;5090704;28;20695;-62
2020/12/28 12:48:33;;;;;;;1.40;1.30;;;6.70;99.90;;;;;;5084098;28;20702;-62
2020/12/28 12:50:59;;;;;;;1.37;1.13;;;6.60;99.90;;;;;;5082943;28;20578;-63
2020/12/28 12:53:26;;;;;;;1.10;1.00;;;6.70;99.90;;;;;;5084841;28;20251;-61
2020/12/28 12:55:53;;;;;;;2.07;1.30;;;6.60;99.90;;;;;;5087724;28;20197;-63
2020/12/28 12:58:19;;;;;;;2.50;2.30;;;6.60;99.90;;;;;;5081488;28;20282;-60